Airport View

Enter AWOS ICAO identifier for current METAR.

ex. KFNL

KLTS 310356Z AUTO 11008KT 10SM CLR 19/13 A3014 RMK AO2 SLP195 T01880132 $

31 May 2020 04:34

Other Area AWOS: KAXS - KHBR - KFDR - KF05

TAF AMD KLTS 300717Z 3007/3107 VRB06KT 9999 SKC QNH3011INS BECMG 3014/3015 15010G15KT 9999 FEW080 QNH3004INS BECMG 3100/3101 VRB06KT 9999 SKC QNH3003INS TX31/3022Z TN14/3011Z LAST NO AMDS AFT 3007 NEXT 0109